Time;durP1;ratioP1;P1;durP2;ratioP2;P2;SDS_P1;SDS_P2;PMS_P1;PMS_P2;Temp;Humidity;BMP_temperature;BMP_pressure;BME280_temperature;BME280_humidity;BME280_pressure;Samples;Min_cycle;Max_cycle;Signal;HPM_P1;HPM_P2
2021/01/21 00:00:09;;;;;;;52.35;23.50;;;;;;;2.78;86.39;99286.25;1675400;84;27026;-66
2021/01/21 00:02:34;;;;;;;;;;;;;;;2.69;86.62;99285.22;1693337;84;21240;-65
2021/01/21 00:05:00;;;;;;;52.85;24.70;;;;;;;2.67;86.74;99284.98;1688867;84;20252;-65
2021/01/21 00:07:26;;;;;;;54.47;25.17;;;;;;;2.71;86.85;99288.19;1655584;85;23774;-65
2021/01/21 00:09:52;;;;;;;52.23;26.42;;;;;;;2.76;86.74;99282.11;1655512;85;28330;-66
2021/01/21 00:12:17;;;;;;;49.67;24.27;;;;;;;2.79;86.51;99283.97;1688752;84;27987;-66
2021/01/21 00:14:43;;;;;;;49.58;22.80;;;;;;;2.76;86.48;99279.02;1687918;84;21600;-65
2021/01/21 00:17:09;;;;;;;48.53;24.53;;;;;;;2.80;86.39;99272.59;1689008;84;24541;-67
2021/01/21 00:19:35;;;;;;;49.30;23.70;;;;;;;2.77;86.27;99272.86;1689243;84;22855;-67
2021/01/21 00:22:00;;;;;;;48.92;24.00;;;;;;;2.81;86.21;99271.66;1689545;84;28473;-66
2021/01/21 00:24:26;;;;;;;50.38;24.37;;;;;;;2.81;86.08;99265.59;1688677;84;26759;-66
2021/01/21 00:26:52;;;;;;;49.70;24.63;;;;;;;2.81;85.95;99267.74;1688465;84;21473;-66
2021/01/21 00:29:17;;;;;;;50.13;24.73;;;;;;;2.69;86.23;99268.77;1690438;84;23544;-66
2021/01/21 00:31:43;;;;;;;52.10;24.67;;;;;;;2.67;86.28;99271.95;1690083;84;21839;-66
2021/01/21 00:34:09;;;;;;;52.67;24.32;;;;;;;2.69;86.25;99273.98;1689793;84;28361;-67
2021/01/21 00:36:35;;;;;;;53.25;25.30;;;;;;;2.59;86.46;99271.28;1689626;84;21690;-70
2021/01/21 00:39:01;;;;;;;54.03;23.13;;;;;;;2.61;86.37;99273.77;1689760;84;23517;-70
2021/01/21 00:41:26;;;;;;;54.27;24.73;;;;;;;2.55;86.59;99267.75;1690108;84;24585;-67
2021/01/21 00:43:52;;;;;;;48.03;24.70;;;;;;;2.56;86.74;99270.72;1694213;84;22353;-67
2021/01/21 00:46:18;;;;;;;52.40;26.37;;;;;;;2.54;86.64;99260.91;1700033;83;28233;-66
2021/01/21 00:48:45;;;;;;;52.90;26.23;;;;;;;2.46;86.76;99272.78;1699036;83;26081;-67
2021/01/21 00:51:11;;;;;;;57.43;25.27;;;;;;;2.47;86.85;99271.84;1666889;85;21428;-66
2021/01/21 00:53:37;;;;;;;50.20;24.12;;;;;;;2.49;86.83;99275.63;1670537;85;21129;-67
2021/01/21 00:56:03;;;;;;;57.10;24.87;;;;;;;2.43;86.91;99275.64;1671689;85;23803;-67
2021/01/21 00:58:29;;;;;;;52.45;25.35;;;;;;;2.44;86.84;99273.39;1680744;83;21236;-66
2021/01/21 01:00:55;;;;;;;53.55;25.75;;;;;;;2.47;86.93;99277.05;1679792;83;25335;-67
2021/01/21 01:03:20;;;;;;;51.77;25.93;;;;;;;2.49;86.89;99275.13;1677906;84;21488;-66
2021/01/21 01:05:46;;;;;;;51.67;26.40;;;;;;;2.54;86.59;99271.34;1679576;85;25477;-65
2021/01/21 01:08:12;;;;;;;58.53;26.07;;;;;;;2.51;86.43;99279.73;1678948;84;20966;-66
2021/01/21 01:10:38;;;;;;;55.20;27.10;;;;;;;2.48;86.38;99273.47;1676877;84;27220;-67
2021/01/21 01:13:06;;;;;;;50.65;26.25;;;;;;;2.48;86.51;99281.29;1676796;85;25174;-66
2021/01/21 01:15:32;;;;;;;;;;;;;;;2.46;86.45;99276.69;1681533;83;21239;-66
2021/01/21 01:18:01;;;;;;;53.70;21.97;;;;;;;2.45;86.61;99276.33;1679684;84;20720;-66
2021/01/21 01:20:27;;;;;;;50.48;23.02;;;;;;;2.46;86.65;99281.08;1657488;85;21225;-66
2021/01/21 01:22:54;;;;;;;53.80;25.32;;;;;;;2.40;86.66;99275.06;1679322;85;26809;-66
2021/01/21 01:25:20;;;;;;;51.68;26.62;;;;;;;2.34;86.92;99277.69;1678478;85;21594;-66
2021/01/21 01:27:45;;;;;;;53.97;27.97;;;;;;;2.24;87.30;99273.70;1675715;85;21213;-66
2021/01/21 01:30:14;;;;;;;57.70;25.73;;;;;;;2.27;87.48;99273.92;1685578;85;24551;-66
2021/01/21 01:32:39;;;;;;;53.75;26.10;;;;;;;2.25;87.48;99266.71;1703025;84;21696;-65
2021/01/21 01:35:07;;;;;;;52.70;25.70;;;;;;;2.26;87.63;99267.08;1704189;82;28376;-66
2021/01/21 01:37:33;;;;;;;;;;;;;;;2.35;87.59;99270.23;1704742;84;21661;-66
2021/01/21 01:39:58;;;;;;;52.08;24.20;;;;;;;2.40;87.33;99273.28;1704256;84;21194;-67
2021/01/21 01:42:24;;;;;;;57.43;25.20;;;;;;;2.47;87.19;99262.72;1703915;84;24044;-67
2021/01/21 01:44:50;;;;;;;56.10;27.33;;;;;;;2.51;86.83;99264.58;1693973;83;21060;-66
2021/01/21 01:47:16;;;;;;;59.20;26.73;;;;;;;2.51;86.64;99270.61;1692311;84;27033;-67
2021/01/21 01:49:44;;;;;;;55.50;27.60;;;;;;;2.49;86.45;99276.44;1691580;83;26701;-67
2021/01/21 01:52:09;;;;;;;55.43;27.73;;;;;;;2.47;86.54;99271.84;1691219;84;22157;-67
2021/01/21 01:54:35;;;;;;;62.37;27.03;;;;;;;2.45;86.49;99278.12;1691914;83;25497;-68
2021/01/21 01:57:01;;;;;;;53.53;27.17;;;;;;;2.47;86.41;99273.59;1691115;84;22809;-67
2021/01/21 01:59:28;;;;;;;54.08;25.48;;;;;;;2.45;86.45;99281.54;1691835;84;28372;-67
2021/01/21 02:01:55;;;;;;;55.80;25.08;;;;;;;2.46;86.49;99268.87;1691073;84;22395;-66
2021/01/21 02:04:20;;;;;;;52.58;26.40;;;;;;;2.48;86.32;99273.47;1676959;85;21273;-66
2021/01/21 02:06:46;;;;;;;58.37;28.57;;;;;;;2.50;86.23;99270.73;1690183;84;23576;-67
2021/01/21 02:09:12;;;;;;;55.87;29.27;;;;;;;2.50;86.12;99259.86;1677136;84;21458;-67
2021/01/21 02:12:21;;;;;;;60.17;27.25;;;;;;;2.54;85.99;99260.91;1691814;84;28374;-66
2021/01/21 02:15:26;;;;;;;52.95;27.87;;;;;;;2.52;85.82;99258.43;1676627;85;21238;-66
2021/01/21 02:18:11;;;;;;;58.05;26.35;;;;;;;2.47;85.88;99265.33;1692317;84;21213;-65
2021/01/21 02:21:04;;;;;;;57.50;25.97;;;;;;;2.43;86.02;99262.61;1654593;85;21224;-65
2021/01/21 02:23:48;;;;;;;57.93;26.23;;;;;;;2.41;86.13;99265.83;1693459;83;21188;-67
2021/01/21 02:26:18;;;;;;;58.58;27.25;;;;;;;2.41;86.12;99270.19;1671611;84;21287;-66
2021/01/21 02:28:58;;;;;;;55.35;27.70;;;;;;;2.36;86.28;99271.87;1677896;84;21264;-67
2021/01/21 02:31:47;;;;;;;56.40;28.47;;;;;;;2.37;86.19;99269.63;1691327;84;21674;-65
2021/01/21 02:34:17;;;;;;;59.38;27.37;;;;;;;2.36;86.09;99271.87;1675767;85;21271;-66
2021/01/21 02:36:45;;;;;;;59.70;28.50;;;;;;;2.35;85.97;99268.93;1689659;84;21191;-66
2021/01/21 02:39:10;;;;;;;;;;;;;;;2.35;86.06;99270.23;1679551;84;21598;-66
2021/01/21 02:41:38;;;;;;;53.65;24.05;;;;;;;2.30;86.22;99261.95;1676810;85;20135;-66
2021/01/21 02:44:05;;;;;;;57.13;26.12;;;;;;;2.27;86.33;99265.64;1693500;83;21369;-65
2021/01/21 02:46:30;;;;;;;52.45;26.10;;;;;;;2.29;86.32;99267.64;1678667;84;21760;-67
2021/01/21 02:48:58;;;;;;;56.43;26.70;;;;;;;2.28;86.40;99258.65;1703383;83;21667;-66
2021/01/21 02:51:46;;;;;;;52.58;27.48;;;;;;;2.30;86.38;99262.80;1702072;82;21199;-66
2021/01/21 02:54:43;;;;;;;52.35;27.58;;;;;;;2.30;86.07;99261.48;1704655;82;21223;-66
2021/01/21 02:57:28;;;;;;;65.12;27.02;;;;;;;2.19;86.21;99263.30;1702399;82;21964;-66
2021/01/21 02:59:55;;;;;;;57.25;27.45;;;;;;;2.08;86.69;99261.56;1702065;84;21234;-66
2021/01/21 03:02:23;;;;;;;54.42;26.68;;;;;;;2.08;86.81;99266.32;1704010;82;21128;-65
2021/01/21 03:04:49;;;;;;;51.08;26.75;;;;;;;2.06;86.95;99263.48;1703998;84;21491;-65
2021/01/21 03:07:15;;;;;;;55.43;27.73;;;;;;;2.10;86.98;99266.20;1703669;84;25029;-66
2021/01/21 03:09:44;;;;;;;58.95;27.20;;;;;;;2.18;86.80;99261.19;1704117;84;21307;-65
2021/01/21 03:12:24;;;;;;;53.48;28.32;;;;;;;2.20;86.37;99256.67;1703314;84;21182;-65
2021/01/21 03:14:54;;;;;;;55.98;28.65;;;;;;;2.22;86.34;99261.30;1703118;84;22195;-65
2021/01/21 03:17:25;;;;;;;60.55;27.87;;;;;;;2.21;86.08;99254.91;1704761;82;21217;-65
2021/01/21 03:19:51;;;;;;;51.80;25.85;;;;;;;2.10;86.21;99256.59;1704554;84;21248;-66
2021/01/21 03:22:17;;;;;;;57.23;27.17;;;;;;;2.14;86.35;99258.02;1680265;84;21267;-66
2021/01/21 03:24:42;;;;;;;55.27;26.73;;;;;;;2.05;86.44;99252.70;1704729;84;22061;-66
2021/01/21 03:27:08;;;;;;;53.37;26.97;;;;;;;2.04;86.43;99254.97;1705304;82;22759;-67
2021/01/21 03:29:34;;;;;;;51.13;27.52;;;;;;;2.01;86.36;99250.01;1704722;82;26893;-67
2021/01/21 03:31:59;;;;;;;55.58;28.77;;;;;;;2.01;86.35;99248.22;1704393;82;25113;-66
2021/01/21 03:34:25;;;;;;;54.67;26.27;;;;;;;1.92;86.57;99250.27;1704341;84;21352;-67
2021/01/21 03:36:51;;;;;;;54.43;25.43;;;;;;;1.91;86.77;99245.99;1704895;82;23566;-67
2021/01/21 03:39:17;;;;;;;55.17;25.87;;;;;;;1.86;86.79;99250.75;1677411;84;21085;-66
2021/01/21 03:41:43;;;;;;;51.88;27.45;;;;;;;1.85;87.16;99250.39;1703603;82;27043;-67
2021/01/21 03:44:08;;;;;;;50.58;25.97;;;;;;;1.86;87.07;99245.55;1700119;82;25365;-67
2021/01/21 03:46:34;;;;;;;58.90;26.97;;;;;;;1.86;86.87;99239.85;1709131;82;21449;-68
2021/01/21 03:49:00;;;;;;;53.10;27.63;;;;;;;1.87;86.75;99244.13;1681491;83;23618;-67
2021/01/21 03:51:26;;;;;;;57.60;26.27;;;;;;;1.86;86.77;99242.94;1673457;84;21906;-66
2021/01/21 03:53:51;;;;;;;58.50;25.50;;;;;;;1.81;86.88;99245.09;1673801;84;27297;-66
2021/01/21 03:56:17;;;;;;;50.92;25.57;;;;;;;1.75;87.00;99235.50;1674497;84;26223;-67
2021/01/21 03:58:43;;;;;;;50.57;25.97;;;;;;;1.79;87.03;99245.22;1674807;84;21493;-66
2021/01/21 04:01:09;;;;;;;54.05;24.87;;;;;;;1.82;86.78;99250.63;1674949;84;21201;-66
2021/01/21 04:03:35;;;;;;;50.80;26.43;;;;;;;1.79;86.73;99248.64;1677445;84;21126;-66
2021/01/21 04:06:00;;;;;;;54.80;26.02;;;;;;;1.87;86.80;99245.91;1685500;84;28875;-66
2021/01/21 04:08:27;;;;;;;50.55;25.50;;;;;;;1.83;86.55;99247.09;1677923;84;25655;-66
2021/01/21 04:10:52;;;;;;;51.40;24.57;;;;;;;1.79;86.71;99248.64;1674537;84;21286;-66
2021/01/21 04:13:18;;;;;;;50.80;24.57;;;;;;;1.77;86.74;99246.64;1675089;84;22644;-66
2021/01/21 04:15:46;;;;;;;47.80;23.27;;;;;;;1.75;86.68;99251.12;1674684;84;21810;-66
2021/01/21 04:18:14;;;;;;;;;;;;;;;1.85;86.61;99252.99;1677367;84;21213;-66
2021/01/21 04:20:40;;;;;;;46.48;24.07;;;;;;;1.82;86.44;99251.94;1694884;83;20261;-67
2021/01/21 04:23:06;;;;;;;52.55;23.20;;;;;;;1.86;86.42;99249.45;1696874;83;21354;-66
2021/01/21 04:25:32;;;;;;;55.80;25.93;;;;;;;1.87;86.27;99248.52;1690584;83;21612;-66
2021/01/21 04:27:58;;;;;;;48.13;25.17;;;;;;;1.71;86.22;99238.02;1675873;84;20984;-66
2021/01/21 04:30:24;;;;;;;52.37;24.93;;;;;;;1.65;86.54;99243.71;1674986;84;27760;-68
2021/01/21 04:32:50;;;;;;;51.30;24.98;;;;;;;1.57;87.13;99246.06;1678778;84;21226;-67
2021/01/21 04:35:16;;;;;;;52.27;24.20;;;;;;;1.56;87.13;99236.63;1679221;84;21965;-66
2021/01/21 04:37:42;;;;;;;45.23;22.45;;;;;;;1.56;87.35;99235.33;1674691;84;21261;-67
2021/01/21 04:40:09;;;;;;;46.93;23.70;;;;;;;1.53;87.30;99236.87;1677895;84;21039;-67
2021/01/21 04:42:35;;;;;;;54.25;23.65;;;;;;;1.59;87.31;99237.20;1681658;84;21249;-67
2021/01/21 04:45:02;;;;;;;46.20;23.02;;;;;;;1.61;87.02;99237.08;1672673;84;25764;-66
2021/01/21 04:47:28;;;;;;;50.78;24.60;;;;;;;1.60;86.82;99232.81;1670501;85;21871;-66
2021/01/21 04:49:54;;;;;;;43.87;24.37;;;;;;;1.61;86.95;99233.18;1667121;85;23942;-66
2021/01/21 04:52:20;;;;;;;49.23;24.53;;;;;;;1.59;87.17;99235.09;1668968;84;20973;-66
2021/01/21 04:54:53;;;;;;;44.67;22.25;;;;;;;1.61;87.01;99241.80;1670810;84;21255;-67
2021/01/21 04:57:22;;;;;;;47.08;22.17;;;;;;;1.56;87.07;99237.45;1670012;84;21218;-66
2021/01/21 04:59:48;;;;;;;42.10;21.95;;;;;;;1.67;87.19;99245.70;1625293;87;21420;-67
2021/01/21 05:02:14;;;;;;;42.63;22.93;;;;;;;1.64;87.02;99236.84;1647548;86;21591;-67
2021/01/21 05:04:39;;;;;;;44.97;23.30;;;;;;;1.66;87.08;99244.52;1639550;87;21100;-67
2021/01/21 05:07:05;;;;;;;50.80;23.73;;;;;;;1.71;87.05;99239.32;1641935;87;29176;-67
2021/01/21 05:09:31;;;;;;;47.27;24.23;;;;;;;1.71;86.74;99227.61;1656660;86;25242;-66
2021/01/21 05:11:57;;;;;;;48.00;23.37;;;;;;;1.72;86.76;99237.05;1657584;86;21444;-66
2021/01/21 05:14:22;;;;;;;42.93;22.63;;;;;;;1.66;86.92;99236.72;1655091;86;24524;-66
2021/01/21 05:16:48;;;;;;;45.37;22.50;;;;;;;1.73;86.99;99228.30;1657925;85;21210;-65
2021/01/21 05:19:14;;;;;;;45.57;22.27;;;;;;;1.76;86.74;99237.66;1654810;86;26367;-65
2021/01/21 05:21:41;;;;;;;48.33;22.65;;;;;;;1.72;86.65;99240.14;1654268;86;21169;-66
2021/01/21 05:24:13;;;;;;;44.23;24.43;;;;;;;1.82;86.75;99240.22;1655839;86;21213;-65
2021/01/21 05:26:39;;;;;;;44.50;22.65;;;;;;;1.76;86.76;99244.98;1657416;86;21272;-66
2021/01/21 05:29:06;;;;;;;42.35;21.40;;;;;;;1.73;86.79;99238.71;1656513;85;21129;-64
2021/01/21 05:31:33;;;;;;;45.73;21.67;;;;;;;1.63;86.72;99222.16;1659303;85;21196;-64
2021/01/21 05:34:00;;;;;;;46.18;21.33;;;;;;;1.73;86.73;99234.81;1655175;85;21209;-64
2021/01/21 05:36:26;;;;;;;45.20;22.15;;;;;;;1.82;86.82;99238.92;1671155;85;21615;-65
2021/01/21 05:38:58;;;;;;;45.60;22.37;;;;;;;1.83;86.55;99243.19;1645107;86;21532;-65
2021/01/21 05:41:27;;;;;;;42.30;22.93;;;;;;;1.91;86.61;99243.39;1642741;85;21269;-65
2021/01/21 05:43:53;;;;;;;50.23;23.45;;;;;;;1.91;86.23;99242.09;1626849;87;21213;-65
2021/01/21 05:46:19;;;;;;;41.80;22.13;;;;;;;1.92;86.21;99245.87;1694956;84;26643;-65
2021/01/21 05:48:45;;;;;;;45.90;21.85;;;;;;;1.90;86.27;99249.56;1698538;83;22275;-65
2021/01/21 05:51:11;;;;;;;44.88;22.55;;;;;;;1.91;86.35;99245.99;1699586;84;21187;-66
2021/01/21 05:53:39;;;;;;;42.80;23.30;;;;;;;1.89;86.40;99247.91;1677395;84;20983;-65
2021/01/21 05:56:09;;;;;;;44.85;22.62;;;;;;;1.87;86.21;99252.41;1676127;84;21185;-67
2021/01/21 05:58:38;;;;;;;46.88;21.85;;;;;;;1.87;86.21;99252.41;1699190;84;21170;-66
2021/01/21 06:01:07;;;;;;;41.60;22.35;;;;;;;1.89;86.30;99254.41;1699111;84;22282;-67
2021/01/21 06:03:36;;;;;;;45.98;22.73;;;;;;;1.85;86.30;99262.10;1675440;84;21178;-67
2021/01/21 06:06:07;;;;;;;40.25;22.02;;;;;;;1.85;86.44;99260.80;1672875;84;21165;-67
2021/01/21 06:08:43;;;;;;;45.43;22.32;;;;;;;1.94;86.49;99270.48;1698700;83;21131;-66
2021/01/21 06:11:10;;;;;;;41.20;21.60;;;;;;;2.01;86.23;99269.53;1698416;83;21194;-65
2021/01/21 06:13:43;;;;;;;45.12;21.33;;;;;;;2.06;85.84;99270.80;1699379;83;22088;-65
2021/01/21 06:16:09;;;;;;;41.13;22.50;;;;;;;2.08;85.66;99268.08;1696539;83;21394;-66
2021/01/21 06:18:35;;;;;;;38.60;21.23;;;;;;;1.96;85.32;99263.39;1696236;84;21245;-66
2021/01/21 06:21:05;;;;;;;39.95;21.02;;;;;;;2.05;85.54;99261.81;1698245;83;28429;-66
2021/01/21 06:23:31;;;;;;;39.58;20.88;;;;;;;1.96;85.20;99264.70;1698245;82;21208;-65
2021/01/21 06:25:57;;;;;;;42.58;20.75;;;;;;;2.06;85.57;99272.11;1699374;84;21352;-67
2021/01/21 06:28:23;;;;;;;41.15;22.45;;;;;;;2.09;84.97;99275.77;1698143;84;21223;-65
2021/01/21 06:30:55;;;;;;;38.50;21.57;;;;;;;2.17;85.19;99278.23;1700321;83;21104;-66
2021/01/21 06:33:24;;;;;;;46.77;22.25;;;;;;;2.18;84.59;99274.69;1699691;84;21226;-69
2021/01/21 06:36:02;;;;;;;45.05;21.73;;;;;;;2.21;84.68;99278.35;1676044;84;21287;-66
2021/01/21 06:38:31;;;;;;;40.58;22.40;;;;;;;2.18;84.41;99283.33;1699433;83;22040;-67
2021/01/21 06:40:56;;;;;;;40.20;20.52;;;;;;;2.17;84.54;99284.75;1698245;84;21017;-66
2021/01/21 06:43:40;;;;;;;37.23;20.17;;;;;;;2.21;84.75;99285.68;1699419;84;20995;-66
2021/01/21 06:46:10;;;;;;;37.73;21.00;;;;;;;2.30;84.79;99284.94;1666854;85;21179;-67
2021/01/21 06:48:36;;;;;;;40.25;22.58;;;;;;;2.34;84.56;99285.02;1651960;86;21487;-69
2021/01/21 06:51:11;;;;;;;46.80;22.97;;;;;;;2.38;84.41;99280.41;1687594;83;21028;-68
2021/01/21 06:53:42;;;;;;;39.58;22.30;;;;;;;2.40;84.18;99284.19;1703947;83;21632;-67
2021/01/21 06:56:08;;;;;;;38.20;22.67;;;;;;;2.46;84.13;99279.30;1678593;84;21166;-68
2021/01/21 06:58:55;;;;;;;42.73;22.27;;;;;;;2.43;83.85;99280.84;1702423;84;26778;-69
2021/01/21 07:01:37;;;;;;;39.15;20.77;;;;;;;2.46;84.06;99283.20;1702788;84;21183;-68
2021/01/21 07:04:18;;;;;;;42.85;21.80;;;;;;;2.46;84.34;99272.78;1702158;82;21250;-68
2021/01/21 07:07:03;;;;;;;39.60;22.17;;;;;;;2.54;84.63;99281.76;1704182;84;21537;-68
2021/01/21 07:09:27;;;;;;;44.85;22.05;;;;;;;2.58;85.45;99281.84;1705694;82;21193;-68
2021/01/21 07:11:57;;;;;;;38.90;22.50;;;;;;;2.67;85.07;99291.50;1704650;83;21213;-70
2021/01/21 07:14:26;;;;;;;41.77;23.77;;;;;;;2.75;84.64;99290.41;1677876;84;21119;-69
2021/01/21 07:16:58;;;;;;;41.53;22.95;;;;;;;2.73;84.05;99283.17;1703320;83;21390;-68
2021/01/21 07:19:33;;;;;;;38.88;22.13;;;;;;;2.74;84.11;99286.14;1679200;84;21287;-68
2021/01/21 07:21:59;;;;;;;43.83;22.27;;;;;;;2.68;83.58;99278.34;1703783;84;21221;-67
2021/01/21 07:24:27;;;;;;;40.78;22.25;;;;;;;2.76;84.13;99281.62;1704298;82;28349;-68
2021/01/21 07:26:53;;;;;;;41.23;22.42;;;;;;;2.76;84.04;99281.62;1703208;84;21521;-69
2021/01/21 07:29:20;;;;;;;43.38;23.02;;;;;;;2.79;83.91;99278.76;1700462;84;21196;-69
2021/01/21 07:31:59;;;;;;;43.42;22.27;;;;;;;2.81;83.33;99279.48;1703602;83;21735;-68
2021/01/21 07:34:43;;;;;;;43.00;23.07;;;;;;;2.80;83.43;99280.42;1701428;82;21155;-70
2021/01/21 07:37:29;;;;;;;44.63;24.05;;;;;;;2.81;83.70;99281.23;1701786;84;21171;-67
2021/01/21 07:40:03;;;;;;;40.25;22.25;;;;;;;2.82;83.73;99274.59;1697205;82;21226;-68
2021/01/21 07:42:41;;;;;;;39.48;22.27;;;;;;;2.90;83.59;99270.53;1702344;82;21629;-68
2021/01/21 07:45:14;;;;;;;41.40;22.93;;;;;;;3.02;83.74;99276.02;1701993;83;21120;-68
2021/01/21 07:47:39;;;;;;;43.23;24.10;;;;;;;3.11;83.50;99272.63;1691962;83;21177;-67
2021/01/21 07:50:24;;;;;;;41.92;23.55;;;;;;;3.17;83.35;99264.28;1690920;84;21189;-66
2021/01/21 07:53:05;;;;;;;44.20;24.52;;;;;;;3.24;83.31;99259.36;1691714;84;21137;-67
2021/01/21 07:55:35;;;;;;;42.95;23.27;;;;;;;3.32;83.15;99263.92;1689888;83;21676;-68
2021/01/21 07:58:37;;;;;;;39.80;22.22;;;;;;;3.36;83.09;99262.23;1690616;83;21142;-68
2021/01/21 08:01:10;;;;;;;40.40;21.87;;;;;;;3.40;82.97;99261.47;1692589;83;21168;-67
2021/01/21 08:03:41;;;;;;;39.03;21.93;;;;;;;3.46;82.89;99253.12;1675754;85;21240;-68
2021/01/21 08:06:18;;;;;;;40.98;21.45;;;;;;;3.50;82.58;99261.04;1691211;83;22092;-70
2021/01/21 08:08:46;;;;;;;36.85;21.42;;;;;;;3.54;82.35;99263.73;1670931;85;22675;-67
2021/01/21 08:11:20;;;;;;;39.03;22.73;;;;;;;3.57;82.12;99262.17;1675969;84;21217;-66
2021/01/21 08:13:50;;;;;;;39.88;22.62;;;;;;;3.65;82.40;99254.13;1674960;84;21510;-68
2021/01/21 08:16:18;;;;;;;39.73;22.77;;;;;;;3.69;82.40;99250.30;1689741;83;21188;-66
2021/01/21 08:18:45;;;;;;;40.48;23.12;;;;;;;3.73;82.42;99250.39;1674325;85;21285;-67
2021/01/21 08:21:22;;;;;;;42.78;22.58;;;;;;;3.75;82.19;99247.16;1690291;84;25564;-67
2021/01/21 08:23:58;;;;;;;;;;;;;;;3.78;81.95;99243.78;1670336;85;21852;-67
2021/01/21 08:26:30;;;;;;;35.03;19.75;;;;;;;3.76;81.82;99247.52;1673746;85;20300;-66
2021/01/21 08:28:56;;;;;;;35.75;19.87;;;;;;;3.77;81.93;99234.78;1672140;85;21208;-68
2021/01/21 08:31:39;;;;;;;36.17;21.17;;;;;;;3.82;81.87;99244.33;1692587;84;21723;-68
2021/01/21 08:34:07;;;;;;;34.95;19.73;;;;;;;3.88;81.75;99247.70;1688630;83;21989;-68
2021/01/21 08:36:33;;;;;;;35.05;20.70;;;;;;;3.97;81.88;99245.27;1675765;84;21693;-67
2021/01/21 08:38:59;;;;;;;38.05;20.82;;;;;;;3.99;81.82;99240.23;1672850;84;25117;-67
2021/01/21 08:41:24;;;;;;;35.90;20.37;;;;;;;4.07;81.84;99244.77;1691218;84;28325;-66
2021/01/21 08:43:50;;;;;;;33.63;18.82;;;;;;;4.11;81.42;99239.14;1691075;84;26849;-66
2021/01/21 08:46:18;;;;;;;31.27;19.05;;;;;;;4.19;81.27;99237.63;1700583;82;21956;-67
2021/01/21 08:48:44;;;;;;;33.30;19.48;;;;;;;4.29;80.75;99232.75;1715508;82;22275;-66
2021/01/21 08:51:42;;;;;;;34.63;19.20;;;;;;;4.41;80.60;99222.98;1712499;82;21156;-67
2021/01/21 08:54:20;;;;;;;31.07;16.93;;;;;;;4.51;80.81;99230.81;1715892;82;21208;-73
2021/01/21 08:57:20;;;;;;;;;;;;;;;4.66;80.34;99237.25;1718704;82;21689;-73
2021/01/21 08:59:45;;;;;;;32.65;17.40;;;;;;;4.84;79.44;99243.05;1715448;82;20651;-74
2021/01/21 09:02:11;;;;;;;29.67;17.55;;;;;;;5.03;79.11;99233.85;1698191;83;21271;-73
2021/01/21 09:04:38;;;;;;;27.60;17.02;;;;;;;5.23;78.58;99233.76;1698943;83;25375;-74
2021/01/21 09:07:08;;;;;;;33.08;18.70;;;;;;;5.39;77.69;99239.20;1694860;83;21201;-73
2021/01/21 09:09:39;;;;;;;33.30;18.75;;;;;;;5.22;76.74;99237.36;1697154;83;21553;-74
2021/01/21 09:12:22;;;;;;;31.52;16.67;;;;;;;5.24;76.95;99241.14;1694768;83;21591;-73
2021/01/21 09:15:12;;;;;;;30.32;17.20;;;;;;;5.24;76.54;99230.67;1696246;82;21301;-74
2021/01/21 09:17:40;;;;;;;32.30;17.02;;;;;;;5.33;76.78;99233.23;1658271;84;21227;-73
2021/01/21 09:20:19;;;;;;;28.90;16.70;;;;;;;5.36;76.51;99235.57;1695739;83;26723;-75
2021/01/21 09:22:46;;;;;;;31.62;17.95;;;;;;;5.30;75.99;99237.92;1698115;83;21265;-75
2021/01/21 09:25:12;;;;;;;30.63;18.17;;;;;;;5.32;76.10;99234.70;1699487;83;21740;-73
2021/01/21 09:27:39;;;;;;;29.65;17.42;;;;;;;5.34;76.35;99233.56;1698962;83;27753;-67
2021/01/21 09:30:12;;;;;;;35.00;18.35;;;;;;;5.32;76.04;99230.27;1697227;83;21221;-65
2021/01/21 09:32:39;;;;;;;31.50;18.05;;;;;;;5.39;76.05;99232.66;1699206;83;22684;-66
2021/01/21 09:35:16;;;;;;;;;;;;;;;5.48;75.95;99236.67;1702626;83;21199;-66
2021/01/21 09:37:55;;;;;;;36.80;18.70;;;;;;;5.49;75.24;99246.19;1696159;83;21048;-68
2021/01/21 09:40:24;;;;;;;31.00;17.73;;;;;;;5.35;75.29;99232.60;1696249;83;21209;-67
2021/01/21 09:42:51;;;;;;;33.13;18.55;;;;;;;5.34;75.58;99230.94;1698368;83;21212;-67
2021/01/21 09:45:17;;;;;;;33.98;19.17;;;;;;;5.40;75.47;99234.78;1698333;83;21234;-67
2021/01/21 09:47:43;;;;;;;34.20;18.57;;;;;;;5.48;75.75;99234.06;1689989;83;26713;-66
2021/01/21 09:50:10;;;;;;;33.25;18.73;;;;;;;5.44;75.52;99228.30;1688179;83;21375;-67
2021/01/21 09:52:36;;;;;;;35.25;18.82;;;;;;;5.51;75.53;99221.98;1689423;83;21139;-67
2021/01/21 09:55:02;;;;;;;33.20;19.12;;;;;;;5.47;74.77;99228.01;1688291;84;25236;-66
2021/01/21 09:57:28;;;;;;;35.70;19.42;;;;;;;5.48;74.94;99221.78;1684357;84;21298;-67
2021/01/21 09:59:54;;;;;;;32.75;18.95;;;;;;;5.46;74.96;99212.44;1688424;84;26964;-66
2021/01/21 10:02:21;;;;;;;30.72;17.73;;;;;;;5.47;74.72;99218.00;1687529;84;21900;-67
2021/01/21 10:04:47;;;;;;;31.45;18.05;;;;;;;5.46;74.84;99218.98;1672728;84;21243;-67
2021/01/21 10:07:13;;;;;;;36.75;18.55;;;;;;;5.48;75.04;99213.92;1689823;84;25319;-67
2021/01/21 10:09:38;;;;;;;33.90;18.45;;;;;;;5.59;75.04;99212.89;1688508;84;28396;-68
2021/01/21 10:12:06;;;;;;;30.75;17.60;;;;;;;5.61;74.77;99216.22;1688833;84;26857;-68
2021/01/21 10:14:32;;;;;;;36.80;19.02;;;;;;;5.68;74.57;99210.70;1689395;84;21605;-67
2021/01/21 10:16:58;;;;;;;33.42;17.75;;;;;;;5.69;74.21;99213.67;1658995;85;27122;-67
2021/01/21 10:19:25;;;;;;;31.35;16.67;;;;;;;5.68;73.77;99201.53;1669764;84;21229;-68
2021/01/21 10:21:50;;;;;;;31.50;17.02;;;;;;;5.69;73.91;99211.05;1690089;84;22312;-67
2021/01/21 10:24:16;;;;;;;31.82;17.37;;;;;;;5.75;74.20;99205.22;1689571;84;26902;-66
2021/01/21 10:26:42;;;;;;;32.00;17.27;;;;;;;5.86;73.97;99204.68;1676656;84;21273;-66
2021/01/21 10:29:08;;;;;;;34.38;18.30;;;;;;;5.83;73.17;99203.17;1691253;84;27556;-66
2021/01/21 10:31:35;;;;;;;32.42;17.30;;;;;;;5.93;73.57;99193.92;1690991;84;21233;-66
2021/01/21 10:34:02;;;;;;;31.05;18.05;;;;;;;6.09;73.52;99186.24;1676645;84;21215;-67
2021/01/21 10:36:27;;;;;;;32.00;17.07;;;;;;;6.05;72.67;99192.75;1691417;83;21156;-67
2021/01/21 10:38:53;;;;;;;27.37;16.15;;;;;;;6.09;72.95;99198.03;1674695;84;21205;-66
2021/01/21 10:41:19;;;;;;;31.82;17.02;;;;;;;6.06;72.37;99197.03;1692541;83;27195;-68
2021/01/21 10:43:44;;;;;;;32.10;18.10;;;;;;;6.18;72.75;99193.66;1673158;84;25469;-66
2021/01/21 10:46:10;;;;;;;31.62;17.62;;;;;;;6.15;72.31;99191.84;1677327;83;29039;-67
2021/01/21 10:48:36;;;;;;;34.30;17.75;;;;;;;6.26;72.51;99188.98;1703301;82;27197;-68
2021/01/21 10:51:02;;;;;;;29.67;17.45;;;;;;;6.31;72.26;99189.83;1704047;84;21244;-67
2021/01/21 10:53:28;;;;;;;29.75;17.23;;;;;;;6.32;72.24;99180.50;1703204;82;27160;-66
2021/01/21 10:55:53;;;;;;;36.30;18.07;;;;;;;6.17;71.53;99171.53;1703235;84;25277;-67
2021/01/21 10:58:19;;;;;;;33.35;18.02;;;;;;;6.25;71.86;99179.48;1704059;82;28340;-66
2021/01/21 11:00:45;;;;;;;31.68;17.75;;;;;;;6.31;71.79;99178.87;1702812;82;21207;-64
2021/01/21 11:03:12;;;;;;;32.63;17.98;;;;;;;6.32;71.84;99180.50;1703070;83;21098;-65
2021/01/21 11:05:39;;;;;;;32.38;17.82;;;;;;;6.30;72.09;99175.91;1703165;84;21211;-65
2021/01/21 11:08:05;;;;;;;38.05;19.15;;;;;;;6.26;72.11;99165.38;1680901;84;21168;-65
2021/01/21 11:10:30;;;;;;;35.65;18.02;;;;;;;6.26;71.74;99165.38;1702911;83;28523;-65
2021/01/21 11:12:56;;;;;;;33.90;18.05;;;;;;;6.30;71.68;99157.55;1703632;83;26683;-63
2021/01/21 11:15:23;;;;;;;32.98;17.80;;;;;;;6.32;71.67;99163.46;1701494;84;22272;-64
2021/01/21 11:17:49;;;;;;;32.35;18.05;;;;;;;6.40;72.15;99164.85;1703619;83;21646;-66
2021/01/21 11:20:16;;;;;;;33.83;19.02;;;;;;;6.36;71.37;99166.12;1700040;84;25298;-65
2021/01/21 11:22:42;;;;;;;33.83;19.07;;;;;;;6.28;71.67;99155.59;1703481;82;21174;-65
2021/01/21 11:25:09;;;;;;;33.75;18.37;;;;;;;6.36;71.57;99160.06;1703372;84;26734;-65
2021/01/21 11:27:36;;;;;;;34.88;19.20;;;;;;;6.40;71.53;99151.73;1705659;82;21210;-65
2021/01/21 11:30:05;;;;;;;37.17;19.02;;;;;;;6.39;71.16;99150.08;1703772;82;21151;-65
2021/01/21 11:32:31;;;;;;;33.02;17.70;;;;;;;6.48;71.73;99143.10;1704431;82;21273;-63
2021/01/21 11:34:56;;;;;;;32.25;18.45;;;;;;;6.56;71.76;99143.64;1701498;84;28767;-65